sensor_id;sensor_type;location;lat;lon;timestamp;temperature;humidity
39099;DHT22;24844;52.380;7.018;2022-12-29T00:01:22;9.90;99.90
39099;DHT22;24844;52.380;7.018;2022-12-29T00:03:48;10.20;99.90
39099;DHT22;24844;52.380;7.018;2022-12-29T00:06:14;9.90;99.90
39099;DHT22;24844;52.380;7.018;2022-12-29T00:08:39;10.00;99.90
39099;DHT22;24844;52.380;7.018;2022-12-29T00:11:13;10.30;99.90
39099;DHT22;24844;52.380;7.018;2022-12-29T00:13:39;9.90;99.90
39099;DHT22;24844;52.380;7.018;2022-12-29T00:16:23;9.80;99.90
39099;DHT22;24844;52.380;7.018;2022-12-29T00:18:49;10.20;99.90
39099;DHT22;24844;52.380;7.018;2022-12-29T00:21:17;9.80;99.90
39099;DHT22;24844;52.380;7.018;2022-12-29T00:24:02;10.20;99.90
39099;DHT22;24844;52.380;7.018;2022-12-29T00:26:48;10.10;99.90
39099;DHT22;24844;52.380;7.018;2022-12-29T00:29:32;10.00;99.90
39099;DHT22;24844;52.380;7.018;2022-12-29T00:32:16;10.10;99.90
39099;DHT22;24844;52.380;7.018;2022-12-29T00:35:00;10.30;99.90
39099;DHT22;24844;52.380;7.018;2022-12-29T00:37:43;10.30;99.90
39099;DHT22;24844;52.380;7.018;2022-12-29T00:40:29;10.20;99.90
39099;DHT22;24844;52.380;7.018;2022-12-29T00:43:13;10.30;99.90
39099;DHT22;24844;52.380;7.018;2022-12-29T00:45:57;10.30;99.90
39099;DHT22;24844;52.380;7.018;2022-12-29T00:48:23;10.30;99.90
39099;DHT22;24844;52.380;7.018;2022-12-29T00:51:07;10.40;99.90
39099;DHT22;24844;52.380;7.018;2022-12-29T00:53:33;10.10;99.90
39099;DHT22;24844;52.380;7.018;2022-12-29T00:55:59;10.30;99.90
39099;DHT22;24844;52.380;7.018;2022-12-29T00:58:29;10.00;99.90
39099;DHT22;24844;52.380;7.018;2022-12-29T01:01:04;10.20;99.90
39099;DHT22;24844;52.380;7.018;2022-12-29T01:03:30;10.10;99.90
39099;DHT22;24844;52.380;7.018;2022-12-29T01:05:56;10.30;99.90
39099;DHT22;24844;52.380;7.018;2022-12-29T01:08:22;10.20;99.90
39099;DHT22;24844;52.380;7.018;2022-12-29T01:11:01;10.00;99.90
39099;DHT22;24844;52.380;7.018;2022-12-29T01:13:27;10.20;99.90
39099;DHT22;24844;52.380;7.018;2022-12-29T01:15:53;9.90;99.90
39099;DHT22;24844;52.380;7.018;2022-12-29T01:18:20;10.20;99.90
39099;DHT22;24844;52.380;7.018;2022-12-29T01:20:45;10.30;99.90
39099;DHT22;24844;52.380;7.018;2022-12-29T01:23:11;10.30;99.90
39099;DHT22;24844;52.380;7.018;2022-12-29T01:25:37;10.20;99.90
39099;DHT22;24844;52.380;7.018;2022-12-29T01:28:02;10.30;99.90
39099;DHT22;24844;52.380;7.018;2022-12-29T01:30:28;10.00;99.90
39099;DHT22;24844;52.380;7.018;2022-12-29T01:32:53;10.20;99.90
39099;DHT22;24844;52.380;7.018;2022-12-29T01:35:19;10.20;99.90
39099;DHT22;24844;52.380;7.018;2022-12-29T01:37:45;10.10;99.90
39099;DHT22;24844;52.380;7.018;2022-12-29T01:40:11;10.40;99.90
39099;DHT22;24844;52.380;7.018;2022-12-29T01:42:36;9.90;99.90
39099;DHT22;24844;52.380;7.018;2022-12-29T01:45:13;10.20;99.90
39099;DHT22;24844;52.380;7.018;2022-12-29T01:47:50;10.30;99.90
39099;DHT22;24844;52.380;7.018;2022-12-29T01:55:30;10.30;99.90
39099;DHT22;24844;52.380;7.018;2022-12-29T01:57:57;10.10;99.90
39099;DHT22;24844;52.380;7.018;2022-12-29T02:00:25;10.20;99.90
39099;DHT22;24844;52.380;7.018;2022-12-29T02:02:52;10.20;99.90
39099;DHT22;24844;52.380;7.018;2022-12-29T02:05:44;10.10;99.90
39099;DHT22;24844;52.380;7.018;2022-12-29T02:08:12;10.10;99.90
39099;DHT22;24844;52.380;7.018;2022-12-29T02:10:39;10.00;99.90
39099;DHT22;24844;52.380;7.018;2022-12-29T02:13:05;9.90;99.90
39099;DHT22;24844;52.380;7.018;2022-12-29T02:18:20;10.30;99.90
39099;DHT22;24844;52.380;7.018;2022-12-29T02:21:02;9.90;99.90
39099;DHT22;24844;52.380;7.018;2022-12-29T02:26:34;10.20;99.90
39099;DHT22;24844;52.380;7.018;2022-12-29T02:31:57;9.90;99.90
39099;DHT22;24844;52.380;7.018;2022-12-29T02:37:34;10.20;99.90
39099;DHT22;24844;52.380;7.018;2022-12-29T02:45:58;9.90;99.90
39099;DHT22;24844;52.380;7.018;2022-12-29T02:48:38;10.10;99.90
39099;DHT22;24844;52.380;7.018;2022-12-29T02:51:12;9.90;99.90
39099;DHT22;24844;52.380;7.018;2022-12-29T02:53:40;10.00;99.90
39099;DHT22;24844;52.380;7.018;2022-12-29T02:56:25;10.00;99.90
39099;DHT22;24844;52.380;7.018;2022-12-29T02:58:50;10.50;99.90
39099;DHT22;24844;52.380;7.018;2022-12-29T03:09:52;10.40;99.90
39099;DHT22;24844;52.380;7.018;2022-12-29T03:12:31;10.40;99.90
39099;DHT22;24844;52.380;7.018;2022-12-29T03:15:23;10.40;99.90
39099;DHT22;24844;52.380;7.018;2022-12-29T03:18:18;10.20;99.90
39099;DHT22;24844;52.380;7.018;2022-12-29T03:23:41;10.60;99.90
39099;DHT22;24844;52.380;7.018;2022-12-29T03:26:11;10.30;99.90
39099;DHT22;24844;52.380;7.018;2022-12-29T03:28:51;10.90;99.90
39099;DHT22;24844;52.380;7.018;2022-12-29T03:31:18;10.40;99.90
39099;DHT22;24844;52.380;7.018;2022-12-29T03:33:45;10.70;99.90
39099;DHT22;24844;52.380;7.018;2022-12-29T03:36:17;10.90;99.90
39099;DHT22;24844;52.380;7.018;2022-12-29T03:38:53;10.80;99.90
39099;DHT22;24844;52.380;7.018;2022-12-29T03:41:26;10.40;99.90
39099;DHT22;24844;52.380;7.018;2022-12-29T03:43:53;10.50;99.90
39099;DHT22;24844;52.380;7.018;2022-12-29T03:46:19;10.70;99.90
39099;DHT22;24844;52.380;7.018;2022-12-29T03:48:44;10.70;99.90
39099;DHT22;24844;52.380;7.018;2022-12-29T03:51:10;10.70;99.90
39099;DHT22;24844;52.380;7.018;2022-12-29T03:53:36;10.30;99.90
39099;DHT22;24844;52.380;7.018;2022-12-29T03:56:01;10.70;99.90
39099;DHT22;24844;52.380;7.018;2022-12-29T03:58:27;10.50;99.90
39099;DHT22;24844;52.380;7.018;2022-12-29T04:00:52;10.60;99.90
39099;DHT22;24844;52.380;7.018;2022-12-29T04:03:18;10.30;99.90
39099;DHT22;24844;52.380;7.018;2022-12-29T04:05:43;10.20;99.90
39099;DHT22;24844;52.380;7.018;2022-12-29T04:08:09;10.40;99.90
39099;DHT22;24844;52.380;7.018;2022-12-29T04:10:35;10.90;99.90
39099;DHT22;24844;52.380;7.018;2022-12-29T04:13:00;10.90;99.90
39099;DHT22;24844;52.380;7.018;2022-12-29T04:15:26;10.40;99.90
39099;DHT22;24844;52.380;7.018;2022-12-29T04:17:51;10.90;99.90
39099;DHT22;24844;52.380;7.018;2022-12-29T04:20:17;10.90;99.90
39099;DHT22;24844;52.380;7.018;2022-12-29T04:23:05;10.60;99.90
39099;DHT22;24844;52.380;7.018;2022-12-29T04:25:31;10.70;99.90
39099;DHT22;24844;52.380;7.018;2022-12-29T04:27:57;10.60;99.90
39099;DHT22;24844;52.380;7.018;2022-12-29T04:30:23;10.90;99.90
39099;DHT22;24844;52.380;7.018;2022-12-29T04:32:48;10.50;99.90
39099;DHT22;24844;52.380;7.018;2022-12-29T04:35:14;10.80;99.90
39099;DHT22;24844;52.380;7.018;2022-12-29T04:37:40;10.50;99.90
39099;DHT22;24844;52.380;7.018;2022-12-29T04:40:06;10.30;99.90
39099;DHT22;24844;52.380;7.018;2022-12-29T04:42:32;10.40;99.90
39099;DHT22;24844;52.380;7.018;2022-12-29T04:44:58;10.50;99.90
39099;DHT22;24844;52.380;7.018;2022-12-29T04:47:23;10.30;99.90
39099;DHT22;24844;52.380;7.018;2022-12-29T04:49:49;10.10;99.90
39099;DHT22;24844;52.380;7.018;2022-12-29T04:52:14;10.30;99.90
39099;DHT22;24844;52.380;7.018;2022-12-29T04:54:40;10.20;99.90
39099;DHT22;24844;52.380;7.018;2022-12-29T04:57:05;10.70;99.90
39099;DHT22;24844;52.380;7.018;2022-12-29T04:59:31;10.10;99.90
39099;DHT22;24844;52.380;7.018;2022-12-29T05:01:57;10.10;99.90
39099;DHT22;24844;52.380;7.018;2022-12-29T05:04:22;10.10;99.90
39099;DHT22;24844;52.380;7.018;2022-12-29T05:06:48;10.10;99.90
39099;DHT22;24844;52.380;7.018;2022-12-29T05:09:13;10.10;99.90
39099;DHT22;24844;52.380;7.018;2022-12-29T05:11:39;10.50;99.90
39099;DHT22;24844;52.380;7.018;2022-12-29T05:14:04;10.40;99.90
39099;DHT22;24844;52.380;7.018;2022-12-29T05:16:30;10.60;99.90
39099;DHT22;24844;52.380;7.018;2022-12-29T05:18:55;10.40;99.90
39099;DHT22;24844;52.380;7.018;2022-12-29T05:21:21;10.10;99.90
39099;DHT22;24844;52.380;7.018;2022-12-29T05:23:46;10.50;99.90
39099;DHT22;24844;52.380;7.018;2022-12-29T05:26:12;10.00;99.90
39099;DHT22;24844;52.380;7.018;2022-12-29T05:28:38;10.40;99.90
39099;DHT22;24844;52.380;7.018;2022-12-29T05:31:03;10.40;99.90
39099;DHT22;24844;52.380;7.018;2022-12-29T05:33:29;10.00;99.90
39099;DHT22;24844;52.380;7.018;2022-12-29T05:35:54;10.00;99.90
39099;DHT22;24844;52.380;7.018;2022-12-29T05:38:20;10.50;99.90
39099;DHT22;24844;52.380;7.018;2022-12-29T05:40:45;10.30;99.90
39099;DHT22;24844;52.380;7.018;2022-12-29T05:43:11;10.20;99.90
39099;DHT22;24844;52.380;7.018;2022-12-29T05:45:37;9.80;99.90
39099;DHT22;24844;52.380;7.018;2022-12-29T05:48:03;9.80;99.90
39099;DHT22;24844;52.380;7.018;2022-12-29T05:50:28;10.10;99.90
39099;DHT22;24844;52.380;7.018;2022-12-29T05:52:54;10.10;99.90
39099;DHT22;24844;52.380;7.018;2022-12-29T05:55:20;9.90;99.90
39099;DHT22;24844;52.380;7.018;2022-12-29T05:57:45;9.90;99.90
39099;DHT22;24844;52.380;7.018;2022-12-29T06:00:11;10.10;99.90
39099;DHT22;24844;52.380;7.018;2022-12-29T06:02:37;9.90;99.90
39099;DHT22;24844;52.380;7.018;2022-12-29T06:05:03;10.20;99.90
39099;DHT22;24844;52.380;7.018;2022-12-29T06:07:29;10.10;99.90
39099;DHT22;24844;52.380;7.018;2022-12-29T06:09:54;10.00;99.90
39099;DHT22;24844;52.380;7.018;2022-12-29T06:12:20;10.00;99.90
39099;DHT22;24844;52.380;7.018;2022-12-29T06:14:45;9.80;99.90
39099;DHT22;24844;52.380;7.018;2022-12-29T06:17:11;9.90;99.90
39099;DHT22;24844;52.380;7.018;2022-12-29T06:19:37;10.10;99.90
39099;DHT22;24844;52.380;7.018;2022-12-29T06:22:02;10.10;99.90
39099;DHT22;24844;52.380;7.018;2022-12-29T06:24:28;9.90;99.90
39099;DHT22;24844;52.380;7.018;2022-12-29T06:26:53;9.70;99.90
39099;DHT22;24844;52.380;7.018;2022-12-29T06:29:19;9.90;99.90
39099;DHT22;24844;52.380;7.018;2022-12-29T06:31:46;9.40;99.90
39099;DHT22;24844;52.380;7.018;2022-12-29T06:34:12;9.80;99.90
39099;DHT22;24844;52.380;7.018;2022-12-29T06:36:38;9.60;99.90
39099;DHT22;24844;52.380;7.018;2022-12-29T06:39:04;9.50;99.90
39099;DHT22;24844;52.380;7.018;2022-12-29T06:41:30;9.50;99.90
39099;DHT22;24844;52.380;7.018;2022-12-29T06:43:55;9.30;99.90
39099;DHT22;24844;52.380;7.018;2022-12-29T06:46:21;9.40;99.90
39099;DHT22;24844;52.380;7.018;2022-12-29T06:48:46;9.40;99.90
39099;DHT22;24844;52.380;7.018;2022-12-29T06:51:12;9.30;99.90
39099;DHT22;24844;52.380;7.018;2022-12-29T06:53:38;9.30;99.90
39099;DHT22;24844;52.380;7.018;2022-12-29T06:56:03;9.10;99.90
39099;DHT22;24844;52.380;7.018;2022-12-29T06:58:30;9.50;99.90
39099;DHT22;24844;52.380;7.018;2022-12-29T07:00:56;9.00;99.90
39099;DHT22;24844;52.380;7.018;2022-12-29T07:03:21;9.20;99.90
39099;DHT22;24844;52.380;7.018;2022-12-29T07:05:47;9.00;99.90
39099;DHT22;24844;52.380;7.018;2022-12-29T07:08:12;9.20;99.90
39099;DHT22;24844;52.380;7.018;2022-12-29T07:10:38;9.20;99.90
39099;DHT22;24844;52.380;7.018;2022-12-29T07:13:04;9.40;99.90
39099;DHT22;24844;52.380;7.018;2022-12-29T07:15:29;9.20;99.90
39099;DHT22;24844;52.380;7.018;2022-12-29T07:17:55;9.10;99.90
39099;DHT22;24844;52.380;7.018;2022-12-29T07:20:21;9.20;99.90
39099;DHT22;24844;52.380;7.018;2022-12-29T07:22:46;9.40;99.90
39099;DHT22;24844;52.380;7.018;2022-12-29T07:25:12;9.00;99.90
39099;DHT22;24844;52.380;7.018;2022-12-29T07:27:38;9.20;99.90
39099;DHT22;24844;52.380;7.018;2022-12-29T07:30:04;9.20;99.90
39099;DHT22;24844;52.380;7.018;2022-12-29T07:32:33;9.00;99.90
39099;DHT22;24844;52.380;7.018;2022-12-29T07:34:59;9.10;99.90
39099;DHT22;24844;52.380;7.018;2022-12-29T07:37:24;9.20;99.90
39099;DHT22;24844;52.380;7.018;2022-12-29T07:39:50;8.90;99.90
39099;DHT22;24844;52.380;7.018;2022-12-29T07:42:15;9.10;99.90
39099;DHT22;24844;52.380;7.018;2022-12-29T07:44:41;9.00;99.90
39099;DHT22;24844;52.380;7.018;2022-12-29T07:47:06;9.00;99.90
39099;DHT22;24844;52.380;7.018;2022-12-29T07:49:32;8.80;99.90
39099;DHT22;24844;52.380;7.018;2022-12-29T07:51:58;9.10;99.90
39099;DHT22;24844;52.380;7.018;2022-12-29T07:54:23;9.00;99.90
39099;DHT22;24844;52.380;7.018;2022-12-29T07:56:49;9.10;99.90
39099;DHT22;24844;52.380;7.018;2022-12-29T07:59:14;9.30;99.90
39099;DHT22;24844;52.380;7.018;2022-12-29T08:01:40;9.10;99.90
39099;DHT22;24844;52.380;7.018;2022-12-29T08:04:06;8.90;99.90
39099;DHT22;24844;52.380;7.018;2022-12-29T08:06:31;9.00;99.90
39099;DHT22;24844;52.380;7.018;2022-12-29T08:08:57;9.10;99.90
39099;DHT22;24844;52.380;7.018;2022-12-29T08:11:23;8.70;99.90
39099;DHT22;24844;52.380;7.018;2022-12-29T08:13:48;9.10;99.90
39099;DHT22;24844;52.380;7.018;2022-12-29T08:16:14;8.90;99.90
39099;DHT22;24844;52.380;7.018;2022-12-29T08:18:40;8.90;99.90
39099;DHT22;24844;52.380;7.018;2022-12-29T08:21:05;8.80;99.90
39099;DHT22;24844;52.380;7.018;2022-12-29T08:23:31;8.90;99.90
39099;DHT22;24844;52.380;7.018;2022-12-29T08:26:03;8.90;99.90
39099;DHT22;24844;52.380;7.018;2022-12-29T08:28:29;9.30;99.90
39099;DHT22;24844;52.380;7.018;2022-12-29T08:31:00;9.50;99.90
39099;DHT22;24844;52.380;7.018;2022-12-29T08:33:27;9.50;99.90
39099;DHT22;24844;52.380;7.018;2022-12-29T08:36:01;9.40;99.90
39099;DHT22;24844;52.380;7.018;2022-12-29T08:38:28;9.50;99.90
39099;DHT22;24844;52.380;7.018;2022-12-29T08:40:54;9.30;99.90
39099;DHT22;24844;52.380;7.018;2022-12-29T08:43:20;9.40;99.90
39099;DHT22;24844;52.380;7.018;2022-12-29T08:45:46;9.10;99.90
39099;DHT22;24844;52.380;7.018;2022-12-29T08:48:11;9.20;99.90
39099;DHT22;24844;52.380;7.018;2022-12-29T08:50:37;9.50;99.90
39099;DHT22;24844;52.380;7.018;2022-12-29T08:53:02;9.40;99.90
39099;DHT22;24844;52.380;7.018;2022-12-29T08:55:28;9.70;99.90
39099;DHT22;24844;52.380;7.018;2022-12-29T08:57:53;9.30;99.90
39099;DHT22;24844;52.380;7.018;2022-12-29T09:00:19;9.50;99.90
39099;DHT22;24844;52.380;7.018;2022-12-29T09:02:45;9.30;99.90
39099;DHT22;24844;52.380;7.018;2022-12-29T09:05:11;9.10;99.90
39099;DHT22;24844;52.380;7.018;2022-12-29T09:07:37;8.90;99.90
39099;DHT22;24844;52.380;7.018;2022-12-29T09:10:03;8.90;99.90
39099;DHT22;24844;52.380;7.018;2022-12-29T09:12:29;9.00;99.90
39099;DHT22;24844;52.380;7.018;2022-12-29T09:14:55;9.60;99.90
39099;DHT22;24844;52.380;7.018;2022-12-29T09:17:20;9.70;99.90
39099;DHT22;24844;52.380;7.018;2022-12-29T09:20:05;9.80;99.90
39099;DHT22;24844;52.380;7.018;2022-12-29T09:22:31;9.30;99.90
39099;DHT22;24844;52.380;7.018;2022-12-29T09:24:56;9.50;99.90
39099;DHT22;24844;52.380;7.018;2022-12-29T09:27:22;9.50;99.90
39099;DHT22;24844;52.380;7.018;2022-12-29T09:29:47;9.60;99.90
39099;DHT22;24844;52.380;7.018;2022-12-29T09:32:13;9.30;99.90
39099;DHT22;24844;52.380;7.018;2022-12-29T09:34:38;9.40;99.90
39099;DHT22;24844;52.380;7.018;2022-12-29T09:37:04;10.00;99.90
39099;DHT22;24844;52.380;7.018;2022-12-29T09:39:29;9.40;99.90
39099;DHT22;24844;52.380;7.018;2022-12-29T09:47:23;9.40;99.90
39099;DHT22;24844;52.380;7.018;2022-12-29T09:50:01;9.40;99.90
39099;DHT22;24844;52.380;7.018;2022-12-29T09:52:32;9.40;99.90
39099;DHT22;24844;52.380;7.018;2022-12-29T10:00:33;9.20;99.90
39099;DHT22;24844;52.380;7.018;2022-12-29T10:03:16;9.00;99.90
39099;DHT22;24844;52.380;7.018;2022-12-29T10:08:34;9.10;99.90
39099;DHT22;24844;52.380;7.018;2022-12-29T10:16:30;9.10;99.90
39099;DHT22;24844;52.380;7.018;2022-12-29T10:19:11;8.60;99.90
39099;DHT22;24844;52.380;7.018;2022-12-29T10:22:00;8.90;99.90
39099;DHT22;24844;52.380;7.018;2022-12-29T10:24:30;9.10;99.90
39099;DHT22;24844;52.380;7.018;2022-12-29T10:26:58;8.80;99.90
39099;DHT22;24844;52.380;7.018;2022-12-29T10:29:29;8.90;99.90
39099;DHT22;24844;52.380;7.018;2022-12-29T10:32:37;8.60;99.90
39099;DHT22;24844;52.380;7.018;2022-12-29T10:35:25;9.00;99.90
39099;DHT22;24844;52.380;7.018;2022-12-29T10:38:09;9.10;99.90
39099;DHT22;24844;52.380;7.018;2022-12-29T10:40:42;8.80;99.90
39099;DHT22;24844;52.380;7.018;2022-12-29T10:43:32;8.80;99.90
39099;DHT22;24844;52.380;7.018;2022-12-29T10:46:03;8.90;99.90
39099;DHT22;24844;52.380;7.018;2022-12-29T10:48:34;9.00;99.90
39099;DHT22;24844;52.380;7.018;2022-12-29T10:51:05;8.90;99.90
39099;DHT22;24844;52.380;7.018;2022-12-29T10:53:40;9.20;99.90
39099;DHT22;24844;52.380;7.018;2022-12-29T10:56:21;8.90;99.90
39099;DHT22;24844;52.380;7.018;2022-12-29T10:58:49;9.30;99.90
39099;DHT22;24844;52.380;7.018;2022-12-29T11:01:16;8.80;99.90
39099;DHT22;24844;52.380;7.018;2022-12-29T11:04:15;8.80;99.90
39099;DHT22;24844;52.380;7.018;2022-12-29T11:06:48;9.20;99.90
39099;DHT22;24844;52.380;7.018;2022-12-29T11:09:24;9.30;99.90
39099;DHT22;24844;52.380;7.018;2022-12-29T11:11:50;9.30;99.90
39099;DHT22;24844;52.380;7.018;2022-12-29T11:14:21;9.00;99.90
39099;DHT22;24844;52.380;7.018;2022-12-29T11:17:04;9.10;99.90
39099;DHT22;24844;52.380;7.018;2022-12-29T11:19:30;9.40;99.90
39099;DHT22;24844;52.380;7.018;2022-12-29T11:22:14;9.50;99.90
39099;DHT22;24844;52.380;7.018;2022-12-29T11:24:45;9.30;99.90
39099;DHT22;24844;52.380;7.018;2022-12-29T11:27:20;9.20;99.90
39099;DHT22;24844;52.380;7.018;2022-12-29T11:29:49;9.00;99.90
39099;DHT22;24844;52.380;7.018;2022-12-29T11:32:23;9.30;99.90
39099;DHT22;24844;52.380;7.018;2022-12-29T11:34:49;8.90;99.90
39099;DHT22;24844;52.380;7.018;2022-12-29T11:37:20;9.10;99.90
39099;DHT22;24844;52.380;7.018;2022-12-29T11:39:55;9.20;99.90
39099;DHT22;24844;52.380;7.018;2022-12-29T11:47:42;9.30;99.90
39099;DHT22;24844;52.380;7.018;2022-12-29T11:50:20;9.70;99.90
39099;DHT22;24844;52.380;7.018;2022-12-29T11:52:48;9.20;99.90
39099;DHT22;24844;52.380;7.018;2022-12-29T11:55:20;9.60;99.90
39099;DHT22;24844;52.380;7.018;2022-12-29T11:57:48;9.10;99.90
39099;DHT22;24844;52.380;7.018;2022-12-29T12:00:22;9.60;99.90
39099;DHT22;24844;52.380;7.018;2022-12-29T12:03:00;9.30;99.90
39099;DHT22;24844;52.380;7.018;2022-12-29T12:05:41;9.20;99.90
39099;DHT22;24844;52.380;7.018;2022-12-29T12:08:17;9.60;99.90
39099;DHT22;24844;52.380;7.018;2022-12-29T12:11:12;9.60;99.90
39099;DHT22;24844;52.380;7.018;2022-12-29T12:13:47;9.50;99.90
39099;DHT22;24844;52.380;7.018;2022-12-29T12:16:21;9.40;99.90
39099;DHT22;24844;52.380;7.018;2022-12-29T12:18:57;9.60;99.90
39099;DHT22;24844;52.380;7.018;2022-12-29T12:29:52;9.60;99.90
39099;DHT22;24844;52.380;7.018;2022-12-29T12:34:53;9.70;99.90
39099;DHT22;24844;52.380;7.018;2022-12-29T12:40:28;9.80;99.90
39099;DHT22;24844;52.380;7.018;2022-12-29T12:43:38;9.80;99.90
39099;DHT22;24844;52.380;7.018;2022-12-29T12:49:34;9.30;99.90
39099;DHT22;24844;52.380;7.018;2022-12-29T12:52:09;9.60;99.90
39099;DHT22;24844;52.380;7.018;2022-12-29T13:00:15;9.30;99.90
39099;DHT22;24844;52.380;7.018;2022-12-29T13:11:53;9.30;99.90
39099;DHT22;24844;52.380;7.018;2022-12-29T13:16:57;9.50;99.90
39099;DHT22;24844;52.380;7.018;2022-12-29T13:19:40;9.20;99.90
39099;DHT22;24844;52.380;7.018;2022-12-29T13:28:25;9.30;99.90
39099;DHT22;24844;52.380;7.018;2022-12-29T13:33:29;9.20;99.90
39099;DHT22;24844;52.380;7.018;2022-12-29T13:38:48;8.90;99.90
39099;DHT22;24844;52.380;7.018;2022-12-29T13:41:21;9.10;99.90
39099;DHT22;24844;52.380;7.018;2022-12-29T13:43:49;8.90;99.90
39099;DHT22;24844;52.380;7.018;2022-12-29T13:46:30;9.10;99.90
39099;DHT22;24844;52.380;7.018;2022-12-29T13:49:02;9.30;99.90
39099;DHT22;24844;52.380;7.018;2022-12-29T13:51:31;9.40;99.90
39099;DHT22;24844;52.380;7.018;2022-12-29T13:54:12;9.30;99.90
39099;DHT22;24844;52.380;7.018;2022-12-29T13:56:51;9.40;99.90
39099;DHT22;24844;52.380;7.018;2022-12-29T14:02:37;9.10;99.90
39099;DHT22;24844;52.380;7.018;2022-12-29T14:07:56;9.60;99.90
39099;DHT22;24844;52.380;7.018;2022-12-29T14:10:28;9.40;99.90
39099;DHT22;24844;52.380;7.018;2022-12-29T14:13:21;9.60;99.90
39099;DHT22;24844;52.380;7.018;2022-12-29T14:15:59;9.50;99.90
39099;DHT22;24844;52.380;7.018;2022-12-29T14:18:32;9.40;99.90
39099;DHT22;24844;52.380;7.018;2022-12-29T14:21:08;9.50;99.90
39099;DHT22;24844;52.380;7.018;2022-12-29T14:23:41;9.20;99.90
39099;DHT22;24844;52.380;7.018;2022-12-29T14:28:47;9.10;99.90
39099;DHT22;24844;52.380;7.018;2022-12-29T14:33:39;9.60;99.90
39099;DHT22;24844;52.380;7.018;2022-12-29T14:36:25;9.60;99.90
39099;DHT22;24844;52.380;7.018;2022-12-29T14:38:52;9.40;99.90
39099;DHT22;24844;52.380;7.018;2022-12-29T14:41:26;8.90;99.90
39099;DHT22;24844;52.380;7.018;2022-12-29T14:43:55;9.00;99.90
39099;DHT22;24844;52.380;7.018;2022-12-29T14:46:21;9.00;99.90
39099;DHT22;24844;52.380;7.018;2022-12-29T14:48:47;8.80;99.90
39099;DHT22;24844;52.380;7.018;2022-12-29T14:51:24;9.40;99.90
39099;DHT22;24844;52.380;7.018;2022-12-29T14:53:52;9.00;99.90
39099;DHT22;24844;52.380;7.018;2022-12-29T14:56:20;9.20;99.90
39099;DHT22;24844;52.380;7.018;2022-12-29T15:01:23;9.50;99.90
39099;DHT22;24844;52.380;7.018;2022-12-29T15:03:53;9.20;99.90
39099;DHT22;24844;52.380;7.018;2022-12-29T15:06:22;9.20;99.90
39099;DHT22;24844;52.380;7.018;2022-12-29T15:08:54;9.10;99.90
39099;DHT22;24844;52.380;7.018;2022-12-29T15:11:24;9.20;99.90
39099;DHT22;24844;52.380;7.018;2022-12-29T15:13:50;9.10;99.90
39099;DHT22;24844;52.380;7.018;2022-12-29T15:16:33;9.10;99.90
39099;DHT22;24844;52.380;7.018;2022-12-29T15:19:01;9.20;99.90
39099;DHT22;24844;52.380;7.018;2022-12-29T15:21:30;9.20;99.90
39099;DHT22;24844;52.380;7.018;2022-12-29T15:23:56;9.10;99.90
39099;DHT22;24844;52.380;7.018;2022-12-29T15:26:22;9.30;99.90
39099;DHT22;24844;52.380;7.018;2022-12-29T15:28:50;9.50;99.90
39099;DHT22;24844;52.380;7.018;2022-12-29T15:31:18;9.60;99.90
39099;DHT22;24844;52.380;7.018;2022-12-29T15:33:46;9.20;99.90
39099;DHT22;24844;52.380;7.018;2022-12-29T15:36:19;9.50;99.90
39099;DHT22;24844;52.380;7.018;2022-12-29T15:38:45;9.00;99.90
39099;DHT22;24844;52.380;7.018;2022-12-29T15:41:39;9.00;99.90
39099;DHT22;24844;52.380;7.018;2022-12-29T15:44:39;8.80;99.90
39099;DHT22;24844;52.380;7.018;2022-12-29T15:47:14;9.20;99.90
39099;DHT22;24844;52.380;7.018;2022-12-29T15:49:43;8.90;99.90
39099;DHT22;24844;52.380;7.018;2022-12-29T15:52:09;9.00;99.90
39099;DHT22;24844;52.380;7.018;2022-12-29T15:54:36;8.70;99.90
39099;DHT22;24844;52.380;7.018;2022-12-29T15:57:03;8.90;99.90
39099;DHT22;24844;52.380;7.018;2022-12-29T15:59:33;8.70;99.90
39099;DHT22;24844;52.380;7.018;2022-12-29T16:02:00;8.60;99.90
39099;DHT22;24844;52.380;7.018;2022-12-29T16:04:31;8.80;99.90
39099;DHT22;24844;52.380;7.018;2022-12-29T16:07:03;9.10;99.90
39099;DHT22;24844;52.380;7.018;2022-12-29T16:09:43;9.20;99.90
39099;DHT22;24844;52.380;7.018;2022-12-29T16:12:17;9.30;99.90
39099;DHT22;24844;52.380;7.018;2022-12-29T16:14:47;9.20;99.90
39099;DHT22;24844;52.380;7.018;2022-12-29T16:17:15;9.10;99.90
39099;DHT22;24844;52.380;7.018;2022-12-29T16:19:50;8.80;99.90
39099;DHT22;24844;52.380;7.018;2022-12-29T16:24:59;8.90;99.90
39099;DHT22;24844;52.380;7.018;2022-12-29T16:29:54;8.60;99.90
39099;DHT22;24844;52.380;7.018;2022-12-29T16:32:29;8.70;99.90
39099;DHT22;24844;52.380;7.018;2022-12-29T16:35:18;8.70;99.90
39099;DHT22;24844;52.380;7.018;2022-12-29T16:37:45;8.50;99.90
39099;DHT22;24844;52.380;7.018;2022-12-29T16:50:38;8.40;99.90
39099;DHT22;24844;52.380;7.018;2022-12-29T16:53:05;8.40;99.90
39099;DHT22;24844;52.380;7.018;2022-12-29T16:55:32;8.70;99.90
39099;DHT22;24844;52.380;7.018;2022-12-29T16:57:59;8.40;99.90
39099;DHT22;24844;52.380;7.018;2022-12-29T17:00:29;8.40;99.90
39099;DHT22;24844;52.380;7.018;2022-12-29T17:02:59;8.40;99.90
39099;DHT22;24844;52.380;7.018;2022-12-29T17:05:25;8.60;99.90
39099;DHT22;24844;52.380;7.018;2022-12-29T17:07:51;8.60;99.90
39099;DHT22;24844;52.380;7.018;2022-12-29T17:10:18;8.40;99.90
39099;DHT22;24844;52.380;7.018;2022-12-29T17:12:46;8.40;99.90
39099;DHT22;24844;52.380;7.018;2022-12-29T17:17:44;8.30;99.90
39099;DHT22;24844;52.380;7.018;2022-12-29T17:20:19;8.50;99.90
39099;DHT22;24844;52.380;7.018;2022-12-29T17:22:45;8.80;99.90
39099;DHT22;24844;52.380;7.018;2022-12-29T17:25:17;8.70;99.90
39099;DHT22;24844;52.380;7.018;2022-12-29T17:27:48;8.60;99.90
39099;DHT22;24844;52.380;7.018;2022-12-29T17:30:20;8.70;99.90
39099;DHT22;24844;52.380;7.018;2022-12-29T17:33:02;9.00;99.90
39099;DHT22;24844;52.380;7.018;2022-12-29T17:35:28;9.10;99.90
39099;DHT22;24844;52.380;7.018;2022-12-29T17:37:54;8.80;99.90
39099;DHT22;24844;52.380;7.018;2022-12-29T17:40:22;8.90;99.90
39099;DHT22;24844;52.380;7.018;2022-12-29T17:42:51;8.70;99.90
39099;DHT22;24844;52.380;7.018;2022-12-29T17:45:20;9.00;99.90
39099;DHT22;24844;52.380;7.018;2022-12-29T17:47:46;8.70;99.90
39099;DHT22;24844;52.380;7.018;2022-12-29T17:50:14;8.60;99.90
39099;DHT22;24844;52.380;7.018;2022-12-29T17:52:40;8.70;99.90
39099;DHT22;24844;52.380;7.018;2022-12-29T17:55:08;8.90;99.90
39099;DHT22;24844;52.380;7.018;2022-12-29T17:57:39;8.70;99.90
39099;DHT22;24844;52.380;7.018;2022-12-29T18:00:05;8.90;99.90
39099;DHT22;24844;52.380;7.018;2022-12-29T18:02:31;8.70;99.90
39099;DHT22;24844;52.380;7.018;2022-12-29T18:04:57;8.80;99.90
39099;DHT22;24844;52.380;7.018;2022-12-29T18:07:28;8.70;99.90
39099;DHT22;24844;52.380;7.018;2022-12-29T18:09:54;9.10;99.90
39099;DHT22;24844;52.380;7.018;2022-12-29T18:12:27;8.80;99.90
39099;DHT22;24844;52.380;7.018;2022-12-29T18:14:53;8.50;99.90
39099;DHT22;24844;52.380;7.018;2022-12-29T18:17:19;8.60;99.90